sensor_id;sensor_type;location;lat;lon;timestamp;P1;durP1;ratioP1;P2;durP2;ratioP2
55212;SDS011;41083;52.932;6.674;2022-11-22T00:00:38;7.45;;;3.72;;
55212;SDS011;41083;52.932;6.674;2022-11-22T00:03:04;8.52;;;3.85;;
55212;SDS011;41083;52.932;6.674;2022-11-22T00:05:30;8.00;;;3.40;;
55212;SDS011;41083;52.932;6.674;2022-11-22T00:07:56;9.05;;;4.40;;
55212;SDS011;41083;52.932;6.674;2022-11-22T00:10:22;8.35;;;4.53;;
55212;SDS011;41083;52.932;6.674;2022-11-22T00:12:47;9.27;;;4.80;;
55212;SDS011;41083;52.932;6.674;2022-11-22T00:15:13;8.90;;;3.70;;
55212;SDS011;41083;52.932;6.674;2022-11-22T00:17:39;9.15;;;3.95;;
55212;SDS011;41083;52.932;6.674;2022-11-22T00:20:05;8.98;;;3.92;;
55212;SDS011;41083;52.932;6.674;2022-11-22T00:22:32;7.22;;;3.65;;
55212;SDS011;41083;52.932;6.674;2022-11-22T00:24:58;9.10;;;4.95;;
55212;SDS011;41083;52.932;6.674;2022-11-22T00:27:23;8.80;;;4.03;;
55212;SDS011;41083;52.932;6.674;2022-11-22T00:29:49;12.52;;;4.80;;
55212;SDS011;41083;52.932;6.674;2022-11-22T00:32:15;7.22;;;3.83;;
55212;SDS011;41083;52.932;6.674;2022-11-22T00:34:40;9.63;;;3.70;;
55212;SDS011;41083;52.932;6.674;2022-11-22T00:37:06;8.27;;;4.20;;
55212;SDS011;41083;52.932;6.674;2022-11-22T00:39:32;7.75;;;3.50;;
55212;SDS011;41083;52.932;6.674;2022-11-22T00:41:58;10.57;;;3.72;;
55212;SDS011;41083;52.932;6.674;2022-11-22T00:44:24;9.70;;;4.05;;
55212;SDS011;41083;52.932;6.674;2022-11-22T00:46:49;11.65;;;3.92;;
55212;SDS011;41083;52.932;6.674;2022-11-22T00:49:15;5.68;;;3.38;;
55212;SDS011;41083;52.932;6.674;2022-11-22T00:51:40;11.35;;;4.50;;
55212;SDS011;41083;52.932;6.674;2022-11-22T00:54:06;10.10;;;3.95;;
55212;SDS011;41083;52.932;6.674;2022-11-22T00:56:32;6.97;;;3.45;;
55212;SDS011;41083;52.932;6.674;2022-11-22T00:58:57;10.73;;;5.32;;
55212;SDS011;41083;52.932;6.674;2022-11-22T01:01:23;10.10;;;4.47;;
55212;SDS011;41083;52.932;6.674;2022-11-22T01:03:49;8.98;;;3.97;;
55212;SDS011;41083;52.932;6.674;2022-11-22T01:06:15;10.27;;;3.95;;
55212;SDS011;41083;52.932;6.674;2022-11-22T01:08:40;7.68;;;3.40;;
55212;SDS011;41083;52.932;6.674;2022-11-22T01:11:06;10.73;;;5.45;;
55212;SDS011;41083;52.932;6.674;2022-11-22T01:13:32;9.52;;;4.45;;
55212;SDS011;41083;52.932;6.674;2022-11-22T01:16:02;11.07;;;4.32;;
55212;SDS011;41083;52.932;6.674;2022-11-22T01:18:30;8.98;;;4.85;;
55212;SDS011;41083;52.932;6.674;2022-11-22T01:20:56;11.57;;;4.07;;
55212;SDS011;41083;52.932;6.674;2022-11-22T01:23:21;9.75;;;3.92;;
55212;SDS011;41083;52.932;6.674;2022-11-22T01:25:47;11.45;;;4.45;;
55212;SDS011;41083;52.932;6.674;2022-11-22T01:28:12;11.23;;;5.25;;
55212;SDS011;41083;52.932;6.674;2022-11-22T01:30:39;19.45;;;4.70;;
55212;SDS011;41083;52.932;6.674;2022-11-22T01:33:05;8.98;;;4.35;;
55212;SDS011;41083;52.932;6.674;2022-11-22T01:35:31;14.18;;;4.47;;
55212;SDS011;41083;52.932;6.674;2022-11-22T01:37:57;11.07;;;4.25;;
55212;SDS011;41083;52.932;6.674;2022-11-22T01:40:22;11.70;;;5.28;;
55212;SDS011;41083;52.932;6.674;2022-11-22T01:42:52;10.48;;;5.25;;
55212;SDS011;41083;52.932;6.674;2022-11-22T01:47:58;6.57;;;3.73;;
55212;SDS011;41083;52.932;6.674;2022-11-22T01:50:48;10.25;;;5.45;;
55212;SDS011;41083;52.932;6.674;2022-11-22T01:53:21;8.35;;;3.55;;
55212;SDS011;41083;52.932;6.674;2022-11-22T01:55:51;10.50;;;4.93;;
55212;SDS011;41083;52.932;6.674;2022-11-22T01:58:18;9.57;;;4.05;;
55212;SDS011;41083;52.932;6.674;2022-11-22T02:00:47;9.82;;;4.93;;
55212;SDS011;41083;52.932;6.674;2022-11-22T02:03:15;15.18;;;5.70;;
55212;SDS011;41083;52.932;6.674;2022-11-22T02:05:42;6.85;;;3.58;;
55212;SDS011;41083;52.932;6.674;2022-11-22T02:08:17;6.80;;;3.70;;
55212;SDS011;41083;52.932;6.674;2022-11-22T02:10:51;9.35;;;5.25;;
55212;SDS011;41083;52.932;6.674;2022-11-22T02:13:19;10.38;;;4.60;;
55212;SDS011;41083;52.932;6.674;2022-11-22T02:15:47;11.20;;;4.32;;
55212;SDS011;41083;52.932;6.674;2022-11-22T02:18:15;10.98;;;4.45;;
55212;SDS011;41083;52.932;6.674;2022-11-22T02:20:40;8.38;;;4.60;;
55212;SDS011;41083;52.932;6.674;2022-11-22T02:23:09;11.57;;;5.18;;
55212;SDS011;41083;52.932;6.674;2022-11-22T02:28:06;8.30;;;4.05;;
55212;SDS011;41083;52.932;6.674;2022-11-22T02:30:37;8.35;;;4.18;;
55212;SDS011;41083;52.932;6.674;2022-11-22T02:33:04;9.57;;;4.50;;
55212;SDS011;41083;52.932;6.674;2022-11-22T02:35:31;11.10;;;4.43;;
55212;SDS011;41083;52.932;6.674;2022-11-22T02:38:00;8.00;;;3.92;;
55212;SDS011;41083;52.932;6.674;2022-11-22T02:43:19;10.30;;;5.65;;
55212;SDS011;41083;52.932;6.674;2022-11-22T02:45:47;14.63;;;4.00;;
55212;SDS011;41083;52.932;6.674;2022-11-22T02:48:13;9.57;;;4.18;;
55212;SDS011;41083;52.932;6.674;2022-11-22T02:50:40;8.32;;;4.30;;
55212;SDS011;41083;52.932;6.674;2022-11-22T02:53:07;5.70;;;3.85;;
55212;SDS011;41083;52.932;6.674;2022-11-22T02:55:34;10.73;;;4.63;;
55212;SDS011;41083;52.932;6.674;2022-11-22T02:58:00;11.85;;;3.90;;
55212;SDS011;41083;52.932;6.674;2022-11-22T03:00:26;10.75;;;4.97;;
55212;SDS011;41083;52.932;6.674;2022-11-22T03:02:52;7.57;;;3.83;;
55212;SDS011;41083;52.932;6.674;2022-11-22T03:05:18;10.25;;;4.60;;
55212;SDS011;41083;52.932;6.674;2022-11-22T03:07:43;10.43;;;4.68;;
55212;SDS011;41083;52.932;6.674;2022-11-22T03:10:09;6.25;;;2.92;;
55212;SDS011;41083;52.932;6.674;2022-11-22T03:12:34;11.40;;;3.80;;
55212;SDS011;41083;52.932;6.674;2022-11-22T03:15:00;7.55;;;3.85;;
55212;SDS011;41083;52.932;6.674;2022-11-22T03:17:26;10.70;;;4.45;;
55212;SDS011;41083;52.932;6.674;2022-11-22T03:19:52;7.72;;;3.60;;
55212;SDS011;41083;52.932;6.674;2022-11-22T03:22:17;5.85;;;2.83;;
55212;SDS011;41083;52.932;6.674;2022-11-22T03:24:43;9.55;;;3.83;;
55212;SDS011;41083;52.932;6.674;2022-11-22T03:27:08;7.00;;;3.75;;
55212;SDS011;41083;52.932;6.674;2022-11-22T03:29:34;9.52;;;4.00;;
55212;SDS011;41083;52.932;6.674;2022-11-22T03:32:00;8.90;;;3.88;;
55212;SDS011;41083;52.932;6.674;2022-11-22T03:34:25;8.10;;;4.68;;
55212;SDS011;41083;52.932;6.674;2022-11-22T03:36:51;12.40;;;4.25;;
55212;SDS011;41083;52.932;6.674;2022-11-22T03:39:16;8.32;;;3.95;;
55212;SDS011;41083;52.932;6.674;2022-11-22T03:41:42;9.98;;;4.65;;
55212;SDS011;41083;52.932;6.674;2022-11-22T03:44:08;4.00;;;2.15;;
55212;SDS011;41083;52.932;6.674;2022-11-22T03:46:34;9.95;;;4.57;;
55212;SDS011;41083;52.932;6.674;2022-11-22T03:49:00;5.80;;;2.85;;
55212;SDS011;41083;52.932;6.674;2022-11-22T03:51:26;6.43;;;2.88;;
55212;SDS011;41083;52.932;6.674;2022-11-22T03:53:52;7.50;;;3.10;;
55212;SDS011;41083;52.932;6.674;2022-11-22T03:56:17;7.80;;;4.05;;
55212;SDS011;41083;52.932;6.674;2022-11-22T03:58:43;9.40;;;4.07;;
55212;SDS011;41083;52.932;6.674;2022-11-22T04:01:09;9.50;;;3.95;;
55212;SDS011;41083;52.932;6.674;2022-11-22T04:03:34;10.15;;;4.22;;
55212;SDS011;41083;52.932;6.674;2022-11-22T04:06:00;8.75;;;4.20;;
55212;SDS011;41083;52.932;6.674;2022-11-22T04:08:26;8.48;;;4.78;;
55212;SDS011;41083;52.932;6.674;2022-11-22T04:10:51;5.65;;;3.03;;
55212;SDS011;41083;52.932;6.674;2022-11-22T04:13:17;7.82;;;3.97;;
55212;SDS011;41083;52.932;6.674;2022-11-22T04:15:43;9.82;;;4.28;;
55212;SDS011;41083;52.932;6.674;2022-11-22T04:18:09;10.93;;;3.72;;
55212;SDS011;41083;52.932;6.674;2022-11-22T04:20:36;7.50;;;3.40;;
55212;SDS011;41083;52.932;6.674;2022-11-22T04:23:21;5.50;;;3.50;;
55212;SDS011;41083;52.932;6.674;2022-11-22T04:25:49;11.55;;;4.57;;
55212;SDS011;41083;52.932;6.674;2022-11-22T04:28:18;6.30;;;3.63;;
55212;SDS011;41083;52.932;6.674;2022-11-22T04:30:45;9.25;;;4.30;;
55212;SDS011;41083;52.932;6.674;2022-11-22T04:33:29;7.30;;;3.53;;
55212;SDS011;41083;52.932;6.674;2022-11-22T04:35:55;7.88;;;4.32;;
55212;SDS011;41083;52.932;6.674;2022-11-22T04:38:21;12.80;;;3.38;;
55212;SDS011;41083;52.932;6.674;2022-11-22T04:40:47;9.88;;;3.78;;
55212;SDS011;41083;52.932;6.674;2022-11-22T04:46:05;8.85;;;4.35;;
55212;SDS011;41083;52.932;6.674;2022-11-22T04:48:30;7.30;;;3.17;;
55212;SDS011;41083;52.932;6.674;2022-11-22T04:50:56;8.18;;;3.22;;
55212;SDS011;41083;52.932;6.674;2022-11-22T04:53:40;4.88;;;2.45;;
55212;SDS011;41083;52.932;6.674;2022-11-22T04:56:06;11.35;;;4.35;;
55212;SDS011;41083;52.932;6.674;2022-11-22T04:58:31;10.48;;;3.83;;
55212;SDS011;41083;52.932;6.674;2022-11-22T05:00:57;8.07;;;3.10;;
55212;SDS011;41083;52.932;6.674;2022-11-22T05:03:22;6.85;;;3.45;;
55212;SDS011;41083;52.932;6.674;2022-11-22T05:05:48;5.18;;;2.88;;
55212;SDS011;41083;52.932;6.674;2022-11-22T05:08:14;9.00;;;3.75;;
55212;SDS011;41083;52.932;6.674;2022-11-22T05:10:39;7.85;;;3.58;;
55212;SDS011;41083;52.932;6.674;2022-11-22T05:13:42;9.70;;;4.40;;
55212;SDS011;41083;52.932;6.674;2022-11-22T05:16:07;5.55;;;2.33;;
55212;SDS011;41083;52.932;6.674;2022-11-22T05:18:34;5.22;;;2.95;;
55212;SDS011;41083;52.932;6.674;2022-11-22T05:21:11;6.00;;;3.25;;
55212;SDS011;41083;52.932;6.674;2022-11-22T05:23:37;6.90;;;3.05;;
55212;SDS011;41083;52.932;6.674;2022-11-22T05:26:29;9.77;;;3.85;;
55212;SDS011;41083;52.932;6.674;2022-11-22T05:28:56;3.88;;;2.53;;
55212;SDS011;41083;52.932;6.674;2022-11-22T05:31:22;7.22;;;3.08;;
55212;SDS011;41083;52.932;6.674;2022-11-22T05:33:51;5.53;;;2.65;;
55212;SDS011;41083;52.932;6.674;2022-11-22T05:36:18;7.82;;;2.42;;
55212;SDS011;41083;52.932;6.674;2022-11-22T05:38:44;6.47;;;2.92;;
55212;SDS011;41083;52.932;6.674;2022-11-22T05:41:11;6.78;;;3.55;;
55212;SDS011;41083;52.932;6.674;2022-11-22T05:43:37;5.00;;;2.97;;
55212;SDS011;41083;52.932;6.674;2022-11-22T05:46:14;7.20;;;2.60;;
55212;SDS011;41083;52.932;6.674;2022-11-22T05:48:44;5.43;;;2.53;;
55212;SDS011;41083;52.932;6.674;2022-11-22T05:51:12;6.68;;;3.88;;
55212;SDS011;41083;52.932;6.674;2022-11-22T05:53:40;9.80;;;4.38;;
55212;SDS011;41083;52.932;6.674;2022-11-22T05:56:07;7.28;;;3.75;;
55212;SDS011;41083;52.932;6.674;2022-11-22T05:58:33;7.45;;;4.30;;
55212;SDS011;41083;52.932;6.674;2022-11-22T06:01:07;7.07;;;3.60;;
55212;SDS011;41083;52.932;6.674;2022-11-22T06:03:40;11.38;;;3.47;;
55212;SDS011;41083;52.932;6.674;2022-11-22T06:06:06;9.65;;;4.03;;
55212;SDS011;41083;52.932;6.674;2022-11-22T06:08:33;8.57;;;3.20;;
55212;SDS011;41083;52.932;6.674;2022-11-22T06:11:04;5.18;;;2.80;;
55212;SDS011;41083;52.932;6.674;2022-11-22T06:13:39;6.07;;;3.30;;
55212;SDS011;41083;52.932;6.674;2022-11-22T06:16:06;5.70;;;2.40;;
55212;SDS011;41083;52.932;6.674;2022-11-22T06:18:33;7.70;;;2.88;;
55212;SDS011;41083;52.932;6.674;2022-11-22T06:21:04;5.05;;;2.60;;
55212;SDS011;41083;52.932;6.674;2022-11-22T06:23:31;7.45;;;3.42;;
55212;SDS011;41083;52.932;6.674;2022-11-22T06:28:24;7.22;;;3.70;;
55212;SDS011;41083;52.932;6.674;2022-11-22T06:30:50;5.40;;;2.45;;
55212;SDS011;41083;52.932;6.674;2022-11-22T06:33:16;5.80;;;2.95;;
55212;SDS011;41083;52.932;6.674;2022-11-22T06:35:42;4.78;;;2.53;;
55212;SDS011;41083;52.932;6.674;2022-11-22T06:38:07;6.75;;;3.58;;
55212;SDS011;41083;52.932;6.674;2022-11-22T06:40:33;4.80;;;2.47;;
55212;SDS011;41083;52.932;6.674;2022-11-22T06:42:58;5.32;;;2.65;;
55212;SDS011;41083;52.932;6.674;2022-11-22T06:45:24;6.45;;;2.97;;
55212;SDS011;41083;52.932;6.674;2022-11-22T06:47:50;8.82;;;3.17;;
55212;SDS011;41083;52.932;6.674;2022-11-22T06:50:15;5.88;;;2.97;;
55212;SDS011;41083;52.932;6.674;2022-11-22T06:52:41;7.28;;;3.15;;
55212;SDS011;41083;52.932;6.674;2022-11-22T06:55:06;4.47;;;2.40;;
55212;SDS011;41083;52.932;6.674;2022-11-22T06:57:32;6.28;;;3.65;;
55212;SDS011;41083;52.932;6.674;2022-11-22T06:59:58;5.70;;;2.58;;
55212;SDS011;41083;52.932;6.674;2022-11-22T07:02:24;8.10;;;3.25;;
55212;SDS011;41083;52.932;6.674;2022-11-22T07:04:49;5.78;;;4.00;;
55212;SDS011;41083;52.932;6.674;2022-11-22T07:07:15;10.80;;;3.13;;
55212;SDS011;41083;52.932;6.674;2022-11-22T07:09:40;5.35;;;2.75;;
55212;SDS011;41083;52.932;6.674;2022-11-22T07:12:06;5.60;;;3.22;;
55212;SDS011;41083;52.932;6.674;2022-11-22T07:14:32;4.25;;;1.67;;
55212;SDS011;41083;52.932;6.674;2022-11-22T07:16:57;9.07;;;2.40;;
55212;SDS011;41083;52.932;6.674;2022-11-22T07:19:23;3.70;;;2.60;;
55212;SDS011;41083;52.932;6.674;2022-11-22T07:21:48;6.15;;;2.42;;
55212;SDS011;41083;52.932;6.674;2022-11-22T07:24:14;5.30;;;2.40;;
55212;SDS011;41083;52.932;6.674;2022-11-22T07:26:40;3.38;;;1.75;;
55212;SDS011;41083;52.932;6.674;2022-11-22T07:29:06;4.53;;;2.33;;
55212;SDS011;41083;52.932;6.674;2022-11-22T07:31:31;7.07;;;2.30;;
55212;SDS011;41083;52.932;6.674;2022-11-22T07:33:57;6.78;;;2.08;;
55212;SDS011;41083;52.932;6.674;2022-11-22T07:36:22;7.60;;;2.60;;
55212;SDS011;41083;52.932;6.674;2022-11-22T07:38:49;6.18;;;2.13;;
55212;SDS011;41083;52.932;6.674;2022-11-22T07:41:15;3.08;;;1.85;;
55212;SDS011;41083;52.932;6.674;2022-11-22T07:43:41;3.80;;;1.67;;
55212;SDS011;41083;52.932;6.674;2022-11-22T07:46:14;21.92;;;1.80;;
55212;SDS011;41083;52.932;6.674;2022-11-22T07:48:47;9.95;;;1.75;;
55212;SDS011;41083;52.932;6.674;2022-11-22T07:51:13;3.35;;;1.65;;
55212;SDS011;41083;52.932;6.674;2022-11-22T07:53:39;8.63;;;2.08;;
55212;SDS011;41083;52.932;6.674;2022-11-22T07:56:05;3.30;;;1.77;;
55212;SDS011;41083;52.932;6.674;2022-11-22T07:58:31;4.72;;;1.52;;
55212;SDS011;41083;52.932;6.674;2022-11-22T08:01:02;3.13;;;0.85;;
55212;SDS011;41083;52.932;6.674;2022-11-22T08:03:29;5.38;;;1.67;;
55212;SDS011;41083;52.932;6.674;2022-11-22T08:05:59;3.80;;;1.83;;
55212;SDS011;41083;52.932;6.674;2022-11-22T08:08:25;13.15;;;1.70;;
55212;SDS011;41083;52.932;6.674;2022-11-22T08:10:51;6.70;;;1.15;;
55212;SDS011;41083;52.932;6.674;2022-11-22T08:13:16;4.28;;;1.70;;
55212;SDS011;41083;52.932;6.674;2022-11-22T08:15:42;2.13;;;1.33;;
55212;SDS011;41083;52.932;6.674;2022-11-22T08:18:07;11.50;;;1.65;;
55212;SDS011;41083;52.932;6.674;2022-11-22T08:20:33;4.68;;;1.20;;
55212;SDS011;41083;52.932;6.674;2022-11-22T08:22:58;5.72;;;1.42;;
55212;SDS011;41083;52.932;6.674;2022-11-22T08:25:24;2.03;;;1.30;;
55212;SDS011;41083;52.932;6.674;2022-11-22T08:27:50;4.18;;;1.40;;
55212;SDS011;41083;52.932;6.674;2022-11-22T08:30:15;3.60;;;1.70;;
55212;SDS011;41083;52.932;6.674;2022-11-22T08:32:41;2.00;;;0.85;;
55212;SDS011;41083;52.932;6.674;2022-11-22T08:35:06;3.70;;;1.25;;
55212;SDS011;41083;52.932;6.674;2022-11-22T08:37:32;1.67;;;0.70;;
55212;SDS011;41083;52.932;6.674;2022-11-22T08:39:58;3.03;;;1.08;;
55212;SDS011;41083;52.932;6.674;2022-11-22T08:42:24;1.77;;;0.98;;
55212;SDS011;41083;52.932;6.674;2022-11-22T08:44:49;2.45;;;0.80;;
55212;SDS011;41083;52.932;6.674;2022-11-22T08:47:15;9.70;;;1.02;;
55212;SDS011;41083;52.932;6.674;2022-11-22T08:49:41;3.47;;;1.35;;
55212;SDS011;41083;52.932;6.674;2022-11-22T08:52:06;6.93;;;0.95;;
55212;SDS011;41083;52.932;6.674;2022-11-22T08:54:32;3.95;;;1.10;;
55212;SDS011;41083;52.932;6.674;2022-11-22T08:56:58;2.92;;;1.48;;
55212;SDS011;41083;52.932;6.674;2022-11-22T08:59:23;0.95;;;0.57;;
55212;SDS011;41083;52.932;6.674;2022-11-22T09:01:49;1.33;;;1.08;;
55212;SDS011;41083;52.932;6.674;2022-11-22T09:04:14;1.83;;;0.90;;
55212;SDS011;41083;52.932;6.674;2022-11-22T09:06:40;4.85;;;1.15;;
55212;SDS011;41083;52.932;6.674;2022-11-22T09:09:05;3.35;;;0.85;;
55212;SDS011;41083;52.932;6.674;2022-11-22T09:11:31;2.72;;;1.17;;
55212;SDS011;41083;52.932;6.674;2022-11-22T09:13:57;1.35;;;0.70;;
55212;SDS011;41083;52.932;6.674;2022-11-22T09:16:22;2.10;;;0.90;;
55212;SDS011;41083;52.932;6.674;2022-11-22T09:18:48;3.63;;;1.02;;
55212;SDS011;41083;52.932;6.674;2022-11-22T09:21:15;0.95;;;0.47;;
55212;SDS011;41083;52.932;6.674;2022-11-22T09:23:44;1.08;;;0.57;;
55212;SDS011;41083;52.932;6.674;2022-11-22T09:26:12;12.88;;;1.33;;
55212;SDS011;41083;52.932;6.674;2022-11-22T09:28:40;3.33;;;0.68;;
55212;SDS011;41083;52.932;6.674;2022-11-22T09:31:06;6.20;;;1.17;;
55212;SDS011;41083;52.932;6.674;2022-11-22T09:33:34;1.15;;;0.43;;
55212;SDS011;41083;52.932;6.674;2022-11-22T09:36:05;3.38;;;0.75;;
55212;SDS011;41083;52.932;6.674;2022-11-22T09:38:33;1.63;;;0.82;;
55212;SDS011;41083;52.932;6.674;2022-11-22T09:43:50;7.40;;;1.00;;
55212;SDS011;41083;52.932;6.674;2022-11-22T09:46:45;3.42;;;0.82;;
55212;SDS011;41083;52.932;6.674;2022-11-22T09:49:22;2.88;;;0.75;;
55212;SDS011;41083;52.932;6.674;2022-11-22T09:51:56;4.28;;;1.15;;
55212;SDS011;41083;52.932;6.674;2022-11-22T09:54:30;13.48;;;1.50;;
55212;SDS011;41083;52.932;6.674;2022-11-22T09:57:03;1.30;;;0.77;;
55212;SDS011;41083;52.932;6.674;2022-11-22T09:59:36;2.50;;;0.82;;
55212;SDS011;41083;52.932;6.674;2022-11-22T10:02:11;1.38;;;0.90;;
55212;SDS011;41083;52.932;6.674;2022-11-22T10:04:56;1.25;;;0.65;;
55212;SDS011;41083;52.932;6.674;2022-11-22T10:07:29;3.40;;;0.77;;
55212;SDS011;41083;52.932;6.674;2022-11-22T10:13:11;3.53;;;0.75;;
55212;SDS011;41083;52.932;6.674;2022-11-22T10:18:24;1.67;;;0.90;;
55212;SDS011;41083;52.932;6.674;2022-11-22T10:21:13;2.33;;;0.55;;
55212;SDS011;41083;52.932;6.674;2022-11-22T10:23:39;2.85;;;0.68;;
55212;SDS011;41083;52.932;6.674;2022-11-22T10:34:32;2.92;;;0.70;;
55212;SDS011;41083;52.932;6.674;2022-11-22T10:37:36;3.38;;;0.82;;
55212;SDS011;41083;52.932;6.674;2022-11-22T10:43:02;2.10;;;0.65;;
55212;SDS011;41083;52.932;6.674;2022-11-22T10:45:43;2.67;;;0.77;;
55212;SDS011;41083;52.932;6.674;2022-11-22T11:04:52;9.30;;;0.90;;
55212;SDS011;41083;52.932;6.674;2022-11-22T11:07:20;1.30;;;0.50;;
55212;SDS011;41083;52.932;6.674;2022-11-22T11:09:49;6.05;;;0.90;;
55212;SDS011;41083;52.932;6.674;2022-11-22T11:12:20;1.15;;;0.45;;
55212;SDS011;41083;52.932;6.674;2022-11-22T11:14:54;3.92;;;0.95;;
55212;SDS011;41083;52.932;6.674;2022-11-22T11:17:32;4.82;;;0.80;;
55212;SDS011;41083;52.932;6.674;2022-11-22T11:20:03;1.42;;;0.73;;
55212;SDS011;41083;52.932;6.674;2022-11-22T11:22:37;1.85;;;0.75;;
55212;SDS011;41083;52.932;6.674;2022-11-22T11:28:01;3.40;;;1.00;;
55212;SDS011;41083;52.932;6.674;2022-11-22T11:30:36;2.03;;;0.55;;
55212;SDS011;41083;52.932;6.674;2022-11-22T11:33:03;3.10;;;0.52;;
55212;SDS011;41083;52.932;6.674;2022-11-22T11:35:42;2.42;;;0.80;;
55212;SDS011;41083;52.932;6.674;2022-11-22T11:41:15;3.03;;;0.60;;
55212;SDS011;41083;52.932;6.674;2022-11-22T11:43:58;1.23;;;0.63;;
55212;SDS011;41083;52.932;6.674;2022-11-22T11:46:29;1.13;;;0.90;;
55212;SDS011;41083;52.932;6.674;2022-11-22T11:49:11;4.28;;;0.70;;
55212;SDS011;41083;52.932;6.674;2022-11-22T11:51:48;3.45;;;1.00;;
55212;SDS011;41083;52.932;6.674;2022-11-22T11:54:20;3.45;;;0.63;;
55212;SDS011;41083;52.932;6.674;2022-11-22T11:56:51;8.45;;;0.95;;
55212;SDS011;41083;52.932;6.674;2022-11-22T11:59:22;1.73;;;0.63;;
55212;SDS011;41083;52.932;6.674;2022-11-22T12:04:28;6.55;;;1.48;;
55212;SDS011;41083;52.932;6.674;2022-11-22T12:07:00;1.15;;;0.60;;
55212;SDS011;41083;52.932;6.674;2022-11-22T12:09:29;0.88;;;0.50;;
55212;SDS011;41083;52.932;6.674;2022-11-22T12:14:53;7.90;;;1.75;;
55212;SDS011;41083;52.932;6.674;2022-11-22T12:17:44;1.13;;;0.60;;
55212;SDS011;41083;52.932;6.674;2022-11-22T12:26:22;1.98;;;0.82;;
55212;SDS011;41083;52.932;6.674;2022-11-22T12:28:47;1.02;;;0.32;;
55212;SDS011;41083;52.932;6.674;2022-11-22T12:31:22;0.25;;;0.20;;
55212;SDS011;41083;52.932;6.674;2022-11-22T12:33:57;3.33;;;0.60;;
55212;SDS011;41083;52.932;6.674;2022-11-22T12:39:15;5.40;;;0.70;;
55212;SDS011;41083;52.932;6.674;2022-11-22T12:41:45;2.63;;;0.60;;
55212;SDS011;41083;52.932;6.674;2022-11-22T12:44:14;2.78;;;0.82;;
55212;SDS011;41083;52.932;6.674;2022-11-22T12:46:53;1.20;;;0.57;;
55212;SDS011;41083;52.932;6.674;2022-11-22T12:55:15;1.02;;;0.40;;
55212;SDS011;41083;52.932;6.674;2022-11-22T13:00:41;1.52;;;0.30;;
55212;SDS011;41083;52.932;6.674;2022-11-22T13:03:38;2.53;;;0.47;;
55212;SDS011;41083;52.932;6.674;2022-11-22T13:06:15;0.90;;;0.32;;
55212;SDS011;41083;52.932;6.674;2022-11-22T13:08:57;0.75;;;0.30;;
55212;SDS011;41083;52.932;6.674;2022-11-22T13:11:39;5.30;;;0.65;;
55212;SDS011;41083;52.932;6.674;2022-11-22T13:14:22;2.47;;;0.55;;
55212;SDS011;41083;52.932;6.674;2022-11-22T13:16:57;1.25;;;0.40;;
55212;SDS011;41083;52.932;6.674;2022-11-22T13:19:24;1.33;;;0.70;;
55212;SDS011;41083;52.932;6.674;2022-11-22T13:24:22;1.50;;;0.40;;
55212;SDS011;41083;52.932;6.674;2022-11-22T13:29:32;0.88;;;0.38;;
55212;SDS011;41083;52.932;6.674;2022-11-22T13:34:41;2.97;;;0.40;;
55212;SDS011;41083;52.932;6.674;2022-11-22T13:37:24;0.52;;;0.40;;
55212;SDS011;41083;52.932;6.674;2022-11-22T13:39:52;3.45;;;0.43;;
55212;SDS011;41083;52.932;6.674;2022-11-22T13:42:18;1.65;;;0.70;;
55212;SDS011;41083;52.932;6.674;2022-11-22T13:44:48;1.15;;;0.60;;
55212;SDS011;41083;52.932;6.674;2022-11-22T14:00:51;0.28;;;0.13;;
55212;SDS011;41083;52.932;6.674;2022-11-22T14:03:22;0.73;;;0.30;;
55212;SDS011;41083;52.932;6.674;2022-11-22T14:05:57;2.72;;;0.63;;
55212;SDS011;41083;52.932;6.674;2022-11-22T14:08:34;1.02;;;0.30;;
55212;SDS011;41083;52.932;6.674;2022-11-22T14:11:09;0.32;;;0.20;;
55212;SDS011;41083;52.932;6.674;2022-11-22T14:13:44;0.68;;;0.20;;
55212;SDS011;41083;52.932;6.674;2022-11-22T14:19:01;0.95;;;0.30;;
55212;SDS011;41083;52.932;6.674;2022-11-22T14:21:40;1.55;;;0.20;;
55212;SDS011;41083;52.932;6.674;2022-11-22T14:32:17;1.80;;;0.40;;
55212;SDS011;41083;52.932;6.674;2022-11-22T14:50:40;0.65;;;0.50;;
55212;SDS011;41083;52.932;6.674;2022-11-22T14:53:20;0.82;;;0.32;;
55212;SDS011;41083;52.932;6.674;2022-11-22T14:56:07;0.22;;;0.22;;
55212;SDS011;41083;52.932;6.674;2022-11-22T14:58:43;1.10;;;0.28;;
55212;SDS011;41083;52.932;6.674;2022-11-22T15:12:02;1.88;;;0.50;;
55212;SDS011;41083;52.932;6.674;2022-11-22T15:14:54;2.10;;;0.98;;
55212;SDS011;41083;52.932;6.674;2022-11-22T15:17:31;3.05;;;0.73;;
55212;SDS011;41083;52.932;6.674;2022-11-22T15:20:01;3.15;;;0.65;;
55212;SDS011;41083;52.932;6.674;2022-11-22T15:22:46;0.80;;;0.40;;
55212;SDS011;41083;52.932;6.674;2022-11-22T15:25:15;1.27;;;0.60;;
55212;SDS011;41083;52.932;6.674;2022-11-22T15:27:42;0.68;;;0.43;;
55212;SDS011;41083;52.932;6.674;2022-11-22T15:30:20;2.85;;;0.93;;
55212;SDS011;41083;52.932;6.674;2022-11-22T15:32:49;2.05;;;0.40;;
55212;SDS011;41083;52.932;6.674;2022-11-22T15:35:17;0.57;;;0.38;;
55212;SDS011;41083;52.932;6.674;2022-11-22T15:40:24;3.13;;;0.95;;
55212;SDS011;41083;52.932;6.674;2022-11-22T15:42:51;1.98;;;0.68;;
55212;SDS011;41083;52.932;6.674;2022-11-22T15:45:22;2.25;;;0.55;;
55212;SDS011;41083;52.932;6.674;2022-11-22T15:48:06;0.77;;;0.47;;
55212;SDS011;41083;52.932;6.674;2022-11-22T15:50:38;0.98;;;0.60;;
55212;SDS011;41083;52.932;6.674;2022-11-22T15:53:24;1.25;;;0.80;;
55212;SDS011;41083;52.932;6.674;2022-11-22T15:55:53;0.43;;;0.40;;
55212;SDS011;41083;52.932;6.674;2022-11-22T15:58:26;0.75;;;0.50;;
55212;SDS011;41083;52.932;6.674;2022-11-22T16:00:55;1.13;;;0.70;;
55212;SDS011;41083;52.932;6.674;2022-11-22T16:03:25;3.53;;;2.08;;
55212;SDS011;41083;52.932;6.674;2022-11-22T16:06:04;1.45;;;0.43;;
55212;SDS011;41083;52.932;6.674;2022-11-22T16:08:32;1.05;;;0.60;;
55212;SDS011;41083;52.932;6.674;2022-11-22T16:10:59;7.22;;;0.73;;
55212;SDS011;41083;52.932;6.674;2022-11-22T16:13:27;3.95;;;0.75;;
55212;SDS011;41083;52.932;6.674;2022-11-22T16:18:37;0.45;;;0.35;;
55212;SDS011;41083;52.932;6.674;2022-11-22T16:23:33;1.58;;;0.60;;
55212;SDS011;41083;52.932;6.674;2022-11-22T16:28:41;2.05;;;1.35;;
55212;SDS011;41083;52.932;6.674;2022-11-22T16:33:50;5.07;;;0.82;;
55212;SDS011;41083;52.932;6.674;2022-11-22T16:36:17;3.30;;;1.02;;
55212;SDS011;41083;52.932;6.674;2022-11-22T16:38:43;1.05;;;0.50;;
55212;SDS011;41083;52.932;6.674;2022-11-22T16:41:19;1.17;;;0.60;;
55212;SDS011;41083;52.932;6.674;2022-11-22T16:44:00;3.45;;;0.70;;
55212;SDS011;41083;52.932;6.674;2022-11-22T16:46:28;2.35;;;0.40;;
55212;SDS011;41083;52.932;6.674;2022-11-22T16:48:54;0.75;;;0.25;;
55212;SDS011;41083;52.932;6.674;2022-11-22T16:51:21;0.65;;;0.40;;
55212;SDS011;41083;52.932;6.674;2022-11-22T16:53:49;0.38;;;0.20;;
55212;SDS011;41083;52.932;6.674;2022-11-22T16:56:21;0.88;;;0.30;;
55212;SDS011;41083;52.932;6.674;2022-11-22T16:58:48;3.60;;;0.65;;
55212;SDS011;41083;52.932;6.674;2022-11-22T17:01:19;2.83;;;0.60;;
55212;SDS011;41083;52.932;6.674;2022-11-22T17:03:47;0.90;;;0.35;;
55212;SDS011;41083;52.932;6.674;2022-11-22T17:06:16;0.40;;;0.30;;
55212;SDS011;41083;52.932;6.674;2022-11-22T17:08:43;5.20;;;0.60;;
55212;SDS011;41083;52.932;6.674;2022-11-22T17:11:10;3.03;;;0.60;;
55212;SDS011;41083;52.932;6.674;2022-11-22T17:13:37;2.47;;;0.50;;
55212;SDS011;41083;52.932;6.674;2022-11-22T17:16:03;0.90;;;0.68;;
55212;SDS011;41083;52.932;6.674;2022-11-22T17:18:29;1.98;;;0.28;;
55212;SDS011;41083;52.932;6.674;2022-11-22T17:20:54;2.28;;;0.88;;
55212;SDS011;41083;52.932;6.674;2022-11-22T17:23:28;3.22;;;1.42;;
55212;SDS011;41083;52.932;6.674;2022-11-22T17:25:57;2.53;;;1.25;;
55212;SDS011;41083;52.932;6.674;2022-11-22T17:28:22;12.73;;;1.35;;